Iona, Minnesota
Current Conditions -  °F | °C
As of 5:16 AM on Friday 28 Nov 2014 (Local Time) from KDVP Reporting Station
Clear Clear  
Wind Chill:   Ceiling: Unl
Heat Index: 11°   Visibility: 10mi
Dew Point:   Wind: 8mph
Humidity: 92%   Direction: 150°SSE
Pressure: 29.89"   Gusts: NA
Location:  43.92°N, 95.78°W
Report Text: KDVP 281116Z AUTO 15007KT 10SM CLR M11/M13 A2989 RMK AO2 T11151126
Loading
Personal Weather Stations






























Interactive Weather Map New forecast layout! Learn more

10-Day Weather Forecast

Advertisements
Track Severe Weather on mobile